createdAt,value
2022-09-04T00:00:33.851Z,9.05
2022-09-04T00:03:01.629Z,9.43
2022-09-04T00:05:28.360Z,9.68
2022-09-04T00:07:55.208Z,10.10
2022-09-04T00:10:21.983Z,9.63
2022-09-04T00:12:48.704Z,10.02
2022-09-04T00:15:15.420Z,10.35
2022-09-04T00:17:42.100Z,9.63
2022-09-04T00:20:09.133Z,9.23
2022-09-04T00:22:35.884Z,9.50
2022-09-04T00:25:02.584Z,9.13
2022-09-04T00:27:29.449Z,9.02
2022-09-04T00:29:59.552Z,9.40
2022-09-04T00:32:26.356Z,9.73
2022-09-04T00:34:53.063Z,9.75
2022-09-04T00:37:21.471Z,9.30
2022-09-04T00:39:48.258Z,8.90
2022-09-04T00:42:14.996Z,9.10
2022-09-04T00:44:41.728Z,9.40
2022-09-04T00:47:08.435Z,9.35
2022-09-04T00:49:36.647Z,10.13
2022-09-04T00:52:03.416Z,10.27
2022-09-04T00:54:30.118Z,10.23
2022-09-04T00:56:56.836Z,8.55
2022-09-04T00:59:23.567Z,9.57
2022-09-04T01:01:56.074Z,9.63
2022-09-04T01:04:22.988Z,8.98
2022-09-04T01:06:49.697Z,9.80
2022-09-04T01:09:16.445Z,10.23
2022-09-04T01:11:43.441Z,9.90
2022-09-04T01:14:10.878Z,9.70
2022-09-04T01:16:37.688Z,11.35
2022-09-04T01:19:04.493Z,10.90
2022-09-04T01:21:31.453Z,11.60
2022-09-04T01:23:58.229Z,11.45
2022-09-04T01:26:24.987Z,12.60
2022-09-04T01:28:51.722Z,13.38
2022-09-04T01:31:18.532Z,12.98
2022-09-04T01:33:46.213Z,13.60
2022-09-04T01:36:12.943Z,13.85
2022-09-04T01:38:39.673Z,14.55
2022-09-04T01:41:07.363Z,14.90
2022-09-04T01:43:34.783Z,14.52
2022-09-04T01:46:01.587Z,14.70
2022-09-04T01:48:28.408Z,14.77
2022-09-04T01:50:55.119Z,15.52
2022-09-04T01:53:21.804Z,16.05
2022-09-04T01:55:48.570Z,15.30
2022-09-04T01:58:15.298Z,16.25
2022-09-04T02:00:42.056Z,15.70
2022-09-04T02:03:08.856Z,15.90
2022-09-04T02:05:35.545Z,16.88
2022-09-04T02:08:02.442Z,15.98
2022-09-04T02:10:29.397Z,17.25
2022-09-04T02:12:57.720Z,17.08
2022-09-04T02:15:27.029Z,17.00
2022-09-04T02:17:55.043Z,17.75
2022-09-04T02:20:21.852Z,18.25
2022-09-04T02:22:48.639Z,18.52
2022-09-04T02:25:15.324Z,20.30
2022-09-04T02:27:42.031Z,21.73
2022-09-04T02:30:10.243Z,21.33
2022-09-04T02:32:37.933Z,20.67
2022-09-04T02:35:04.692Z,21.02
2022-09-04T02:37:31.392Z,22.75
2022-09-04T02:40:00.839Z,22.35
2022-09-04T02:42:28.177Z,23.65
2022-09-04T02:44:54.912Z,23.52
2022-09-04T02:47:21.667Z,24.50
2022-09-04T02:49:48.572Z,24.45
2022-09-04T02:52:15.278Z,24.85
2022-09-04T02:54:42.092Z,25.80
2022-09-04T02:57:09.345Z,25.80
2022-09-04T02:59:36.095Z,25.35
2022-09-04T03:02:02.957Z,25.48
2022-09-04T03:04:31.313Z,25.73
2022-09-04T03:06:58.003Z,26.45
2022-09-04T03:09:24.869Z,26.40
2022-09-04T03:11:51.555Z,27.25
2022-09-04T03:14:18.245Z,27.38
2022-09-04T03:16:44.990Z,27.92
2022-09-04T03:19:11.744Z,28.55
2022-09-04T03:21:43.139Z,28.73
2022-09-04T03:24:09.865Z,28.67
2022-09-04T03:26:36.549Z,28.70
2022-09-04T03:29:03.279Z,28.90
2022-09-04T03:31:30.385Z,29.08
2022-09-04T03:33:57.092Z,28.13
2022-09-04T03:36:23.831Z,28.48
2022-09-04T03:38:50.567Z,30.05
2022-09-04T03:41:18.208Z,28.75
2022-09-04T03:43:45.038Z,28.92
2022-09-04T03:46:11.783Z,30.42
2022-09-04T03:48:38.505Z,28.83
2022-09-04T03:51:05.236Z,30.02
2022-09-04T03:53:31.920Z,28.90
2022-09-04T03:55:58.718Z,29.15
2022-09-04T03:58:25.569Z,29.42
2022-09-04T04:00:57.304Z,29.40
2022-09-04T04:03:24.225Z,29.23
2022-09-04T04:05:53.134Z,28.67
2022-09-04T04:08:19.894Z,29.20
2022-09-04T04:10:46.648Z,28.65
2022-09-04T04:13:13.410Z,29.58
2022-09-04T04:15:40.108Z,28.15
2022-09-04T04:18:06.810Z,26.52
2022-09-04T04:20:34.751Z,25.50
2022-09-04T04:23:01.444Z,26.42
2022-09-04T04:25:28.201Z,25.25
2022-09-04T04:27:54.934Z,25.02
2022-09-04T04:30:22.427Z,25.25
2022-09-04T04:32:49.096Z,24.70
2022-09-04T04:35:16.169Z,23.40
2022-09-04T04:37:43.568Z,23.30
2022-09-04T04:40:10.794Z,25.10
2022-09-04T04:42:37.571Z,22.83
2022-09-04T04:45:22.737Z,24.15
2022-09-04T04:47:49.468Z,23.05
2022-09-04T04:50:16.205Z,24.60
2022-09-04T04:52:50.343Z,22.65
2022-09-04T04:55:17.083Z,22.50
2022-09-04T04:57:45.194Z,23.77
2022-09-04T05:00:12.290Z,22.83
2022-09-04T05:02:39.213Z,22.65
2022-09-04T05:05:06.037Z,21.92
2022-09-04T05:07:35.548Z,23.33
2022-09-04T05:10:05.971Z,22.27
2022-09-04T05:12:32.655Z,22.50
2022-09-04T05:14:59.359Z,21.50
2022-09-04T05:17:26.086Z,20.73
2022-09-04T05:19:52.836Z,19.83
2022-09-04T05:22:19.871Z,19.73
2022-09-04T05:24:46.656Z,20.08
2022-09-04T05:27:15.043Z,19.23
2022-09-04T05:29:41.871Z,18.83
2022-09-04T05:32:08.576Z,18.48
2022-09-04T05:34:35.356Z,18.45
2022-09-04T05:37:02.917Z,19.60
2022-09-04T05:39:30.580Z,18.25
2022-09-04T05:41:57.589Z,18.00
2022-09-04T05:44:24.312Z,18.25
2022-09-04T05:46:52.073Z,18.10
2022-09-04T05:49:19.097Z,17.38
2022-09-04T05:51:45.797Z,19.15
2022-09-04T05:54:13.183Z,19.83
2022-09-04T05:56:39.945Z,17.83
2022-09-04T05:59:06.624Z,16.90
2022-09-04T06:01:33.405Z,16.65
2022-09-04T06:04:00.182Z,15.90
2022-09-04T06:06:26.889Z,15.60
2022-09-04T06:08:53.609Z,15.65
2022-09-04T06:11:20.352Z,16.65
2022-09-04T06:13:47.045Z,15.65
2022-09-04T06:16:13.857Z,15.35
2022-09-04T06:18:40.695Z,15.05
2022-09-04T06:21:07.369Z,13.60
2022-09-04T06:23:34.049Z,13.57
2022-09-04T06:26:00.840Z,12.82
2022-09-04T06:28:27.507Z,11.60
2022-09-04T06:30:54.283Z,12.27
2022-09-04T06:33:21.037Z,10.63
2022-09-04T06:35:47.748Z,9.73
2022-09-04T06:38:14.598Z,9.40
2022-09-04T06:40:41.899Z,8.13
2022-09-04T06:43:08.632Z,8.35
2022-09-04T06:45:35.477Z,7.80
2022-09-04T06:48:02.330Z,7.10
2022-09-04T06:50:29.936Z,7.00
2022-09-04T06:52:59.097Z,6.10
2022-09-04T06:55:27.814Z,6.05
2022-09-04T06:57:54.577Z,4.93
2022-09-04T07:00:21.884Z,5.20
2022-09-04T07:02:52.123Z,5.40
2022-09-04T07:05:18.882Z,4.55
2022-09-04T07:07:45.616Z,4.65
2022-09-04T07:10:12.424Z,4.43
2022-09-04T07:12:39.240Z,4.30
2022-09-04T07:15:06.856Z,3.70
2022-09-04T07:17:33.640Z,4.00
2022-09-04T07:20:00.350Z,4.00
2022-09-04T07:22:27.111Z,4.07
2022-09-04T07:24:57.077Z,4.35
2022-09-04T07:27:23.824Z,3.60
2022-09-04T07:29:51.146Z,3.35
2022-09-04T07:32:20.214Z,3.45
2022-09-04T07:34:46.957Z,3.30
2022-09-04T07:37:13.720Z,3.30
2022-09-04T07:39:40.495Z,3.00
2022-09-04T07:42:07.191Z,3.42
2022-09-04T07:44:33.972Z,2.70
2022-09-04T07:47:00.829Z,2.45
2022-09-04T07:49:27.548Z,2.70
2022-09-04T07:51:57.098Z,2.88
2022-09-04T07:54:24.189Z,2.53
2022-09-04T07:56:54.637Z,2.70
2022-09-04T07:59:21.430Z,2.60
2022-09-04T08:01:48.347Z,3.08
2022-09-04T08:04:15.174Z,3.00
2022-09-04T08:06:41.866Z,2.58
2022-09-04T08:09:08.596Z,2.47
2022-09-04T08:11:35.417Z,2.38
2022-09-04T08:14:02.687Z,2.70
2022-09-04T08:16:29.363Z,3.17
2022-09-04T08:18:56.146Z,2.70
2022-09-04T08:21:22.837Z,2.60
2022-09-04T08:23:49.555Z,2.05
2022-09-04T08:26:16.346Z,2.40
2022-09-04T08:28:46.205Z,2.33
2022-09-04T08:31:13.401Z,2.45
2022-09-04T08:33:41.477Z,2.50
2022-09-04T08:36:08.357Z,2.70
2022-09-04T08:38:35.074Z,2.50
2022-09-04T08:41:01.792Z,2.45
2022-09-04T08:43:28.544Z,2.22
2022-09-04T08:45:55.386Z,2.58
2022-09-04T08:48:22.240Z,2.13
2022-09-04T08:50:51.312Z,2.47
2022-09-04T08:53:18.811Z,2.60
2022-09-04T08:55:48.504Z,2.63
2022-09-04T08:58:15.356Z,2.13
2022-09-04T09:00:42.472Z,2.92
2022-09-04T09:03:09.225Z,3.08
2022-09-04T09:05:36.532Z,2.40
2022-09-04T09:08:03.294Z,2.28
2022-09-04T09:10:29.985Z,2.65
2022-09-04T09:12:56.967Z,2.67
2022-09-04T09:15:23.746Z,2.25
2022-09-04T09:17:50.482Z,2.22
2022-09-04T09:20:19.960Z,2.10
2022-09-04T09:22:49.010Z,2.40
2022-09-04T09:25:16.675Z,2.38
2022-09-04T09:27:43.408Z,2.72
2022-09-04T09:30:10.139Z,2.38
2022-09-04T09:32:36.930Z,2.40
2022-09-04T09:35:03.678Z,2.83
2022-09-04T09:37:31.068Z,2.50
2022-09-04T09:39:57.867Z,2.10
2022-09-04T09:42:24.753Z,2.17
2022-09-04T09:44:51.520Z,2.53
2022-09-04T09:47:18.233Z,2.10
2022-09-04T09:49:44.992Z,2.10
2022-09-04T09:52:11.713Z,1.98
2022-09-04T09:54:38.482Z,1.90
2022-09-04T09:57:05.312Z,2.10
2022-09-04T09:59:33.102Z,2.90
2022-09-04T10:01:59.821Z,2.35
2022-09-04T10:04:26.973Z,2.28
2022-09-04T10:06:53.772Z,2.50
2022-09-04T10:09:20.503Z,2.13
2022-09-04T10:11:47.282Z,2.13
2022-09-04T10:14:14.007Z,2.15
2022-09-04T10:16:42.784Z,2.30
2022-09-04T10:19:11.436Z,2.50
2022-09-04T10:21:38.194Z,2.40
2022-09-04T10:24:07.053Z,2.53
2022-09-04T10:26:38.377Z,2.05
2022-09-04T10:29:10.056Z,2.50
2022-09-04T10:31:36.838Z,2.03
2022-09-04T10:34:03.553Z,1.95
2022-09-04T10:36:30.999Z,2.03
2022-09-04T10:39:16.355Z,1.75
2022-09-04T10:41:45.164Z,2.33
2022-09-04T10:44:11.850Z,1.65
2022-09-04T10:46:38.623Z,2.20
2022-09-04T10:49:06.275Z,2.00
2022-09-04T10:51:34.364Z,2.00
2022-09-04T10:54:07.763Z,2.20
2022-09-04T10:56:35.398Z,1.92
2022-09-04T10:59:04.597Z,2.00
2022-09-04T11:01:32.352Z,2.30
2022-09-04T11:03:59.214Z,1.77
2022-09-04T11:06:26.846Z,2.20
2022-09-04T11:08:53.579Z,2.15
2022-09-04T11:11:20.388Z,2.28
2022-09-04T11:13:51.479Z,1.75
2022-09-04T11:16:18.514Z,2.20
2022-09-04T11:18:45.649Z,1.77
2022-09-04T11:21:12.539Z,1.88
2022-09-04T11:23:39.255Z,1.92
2022-09-04T11:26:06.088Z,2.13
2022-09-04T11:28:32.915Z,2.08
2022-09-04T11:30:59.997Z,2.00
2022-09-04T11:33:30.316Z,2.00
2022-09-04T11:35:57.061Z,1.90
2022-09-04T11:38:24.056Z,2.15
2022-09-04T11:40:50.781Z,2.13
2022-09-04T11:43:19.228Z,2.75
2022-09-04T11:45:48.171Z,2.05
2022-09-04T11:48:14.968Z,2.10
2022-09-04T11:50:41.712Z,2.20
2022-09-04T11:53:11.335Z,2.33
2022-09-04T11:55:38.162Z,2.30
2022-09-04T11:58:04.886Z,2.08
2022-09-04T12:00:32.086Z,2.10
2022-09-04T12:02:58.815Z,1.83
2022-09-04T12:05:39.657Z,2.50
2022-09-04T12:08:07.164Z,2.30
2022-09-04T12:10:33.879Z,2.03
2022-09-04T12:13:00.616Z,2.17
2022-09-04T12:15:41.691Z,2.08
2022-09-04T12:18:08.538Z,2.83
2022-09-04T12:20:35.311Z,2.38
2022-09-04T12:23:02.740Z,2.10
2022-09-04T12:25:29.491Z,2.38
2022-09-04T12:27:56.203Z,2.20
2022-09-04T12:30:26.033Z,2.20
2022-09-04T12:32:52.808Z,2.50
2022-09-04T12:35:19.933Z,2.30
2022-09-04T12:37:46.623Z,2.20
2022-09-04T12:40:13.351Z,2.30
2022-09-04T12:42:40.177Z,2.38
2022-09-04T12:45:06.895Z,2.35
2022-09-04T12:47:33.659Z,2.13
2022-09-04T12:50:00.361Z,2.00
2022-09-04T12:52:27.142Z,2.03
2022-09-04T12:54:53.870Z,1.92
2022-09-04T12:57:20.585Z,2.38
2022-09-04T12:59:47.479Z,2.30
2022-09-04T13:02:14.359Z,2.08
2022-09-04T13:04:41.148Z,2.10
2022-09-04T13:07:15.745Z,1.85
2022-09-04T13:09:53.109Z,2.20
2022-09-04T13:12:20.497Z,2.50
2022-09-04T13:14:47.201Z,2.20
2022-09-04T13:17:13.950Z,2.30
2022-09-04T13:19:40.742Z,2.45
2022-09-04T13:22:07.648Z,2.22
2022-09-04T13:24:35.888Z,2.10
2022-09-04T13:27:03.732Z,1.90
2022-09-04T13:29:30.449Z,2.65
2022-09-04T13:31:57.255Z,2.20
2022-09-04T13:34:24.434Z,2.40
2022-09-04T13:36:54.342Z,2.30
2022-09-04T13:39:21.299Z,2.40
2022-09-04T13:41:48.842Z,2.33
2022-09-04T13:44:15.546Z,1.98
2022-09-04T13:46:42.404Z,2.40
2022-09-04T13:49:09.282Z,2.40
2022-09-04T13:51:36.065Z,2.42
2022-09-04T13:54:02.821Z,2.67
2022-09-04T13:56:29.581Z,2.40
2022-09-04T13:58:57.275Z,2.63
2022-09-04T14:01:25.708Z,2.20
2022-09-04T14:03:52.595Z,2.45
2022-09-04T14:06:19.385Z,2.30
2022-09-04T14:08:46.104Z,3.03
2022-09-04T14:11:26.380Z,2.20
2022-09-04T14:13:53.104Z,2.35
2022-09-04T14:16:19.907Z,2.40
2022-09-04T14:18:46.852Z,2.47
2022-09-04T14:21:13.677Z,2.45
2022-09-04T14:23:40.455Z,2.05
2022-09-04T14:26:07.423Z,2.17
2022-09-04T14:28:34.163Z,2.33
2022-09-04T14:31:01.064Z,1.88
2022-09-04T14:33:28.439Z,2.33
2022-09-04T14:36:02.538Z,2.10
2022-09-04T14:38:29.397Z,1.83
2022-09-04T14:40:56.715Z,2.30
2022-09-04T14:43:23.881Z,2.30
2022-09-04T14:45:51.905Z,2.17
2022-09-04T14:48:24.326Z,2.70
2022-09-04T14:50:51.702Z,2.38
2022-09-04T14:53:18.376Z,2.85
2022-09-04T14:55:45.132Z,2.17
2022-09-04T14:58:11.895Z,2.15
2022-09-04T15:00:38.615Z,2.40
2022-09-04T15:03:05.335Z,2.47
2022-09-04T15:05:32.103Z,2.17
2022-09-04T15:07:59.960Z,2.17
2022-09-04T15:10:27.021Z,2.33
2022-09-04T15:12:53.815Z,2.13
2022-09-04T15:15:20.562Z,2.22
2022-09-04T15:17:48.583Z,2.17
2022-09-04T15:20:17.022Z,1.90
2022-09-04T15:22:43.904Z,1.65
2022-09-04T15:25:10.630Z,1.80
2022-09-04T15:27:37.770Z,1.90
2022-09-04T15:30:05.386Z,2.08
2022-09-04T15:32:32.084Z,1.85
2022-09-04T15:34:58.768Z,2.47
2022-09-04T15:37:25.488Z,2.22
2022-09-04T15:39:54.003Z,2.20
2022-09-04T15:42:20.894Z,2.20
2022-09-04T15:44:47.606Z,2.55
2022-09-04T15:47:14.346Z,2.10
2022-09-04T15:49:41.092Z,2.25
2022-09-04T15:52:10.440Z,2.45
2022-09-04T15:54:37.209Z,2.30
2022-09-04T15:57:03.995Z,2.05
2022-09-04T15:59:30.723Z,2.00
2022-09-04T16:01:57.542Z,1.83
2022-09-04T16:04:26.427Z,2.30
2022-09-04T16:06:56.015Z,1.77
2022-09-04T16:09:22.763Z,2.00
2022-09-04T16:11:49.488Z,2.38
2022-09-04T16:14:16.240Z,2.30
2022-09-04T16:16:43.519Z,2.38
2022-09-04T16:19:10.450Z,2.25
2022-09-04T16:21:40.614Z,2.30
2022-09-04T16:24:09.125Z,2.03
2022-09-04T16:26:35.876Z,1.98
2022-09-04T16:29:02.627Z,1.90
2022-09-04T16:31:34.212Z,2.15
2022-09-04T16:34:01.017Z,2.20
2022-09-04T16:36:28.404Z,2.05
2022-09-04T16:38:57.404Z,2.35
2022-09-04T16:41:26.355Z,2.45
2022-09-04T16:43:55.907Z,2.83
2022-09-04T16:46:27.593Z,2.75
2022-09-04T16:48:54.449Z,2.55
2022-09-04T16:51:39.351Z,2.05
2022-09-04T16:54:08.515Z,3.20
2022-09-04T16:56:36.869Z,3.45
2022-09-04T16:59:03.792Z,2.67
2022-09-04T17:01:30.958Z,3.70
2022-09-04T17:04:13.163Z,3.25
2022-09-04T17:06:42.822Z,3.35
2022-09-04T17:09:21.223Z,3.00
2022-09-04T17:11:55.597Z,3.60
2022-09-04T17:14:22.784Z,3.63
2022-09-04T17:16:52.622Z,3.60
2022-09-04T17:19:19.384Z,3.30
2022-09-04T17:25:19.595Z,3.47
2022-09-04T17:29:12.479Z,3.53
2022-09-04T17:29:14.609Z,3.70
2022-09-04T17:30:29.160Z,3.70
2022-09-04T17:37:07.907Z,3.90
2022-09-04T17:40:33.974Z,3.55
2022-09-04T17:40:47.148Z,3.33
2022-09-04T17:41:36.637Z,3.13
2022-09-04T17:44:07.839Z,3.45
2022-09-04T17:46:36.736Z,3.40
2022-09-04T17:49:03.578Z,2.55
2022-09-04T17:51:33.896Z,3.10
2022-09-04T17:54:00.621Z,2.92
2022-09-04T17:56:27.366Z,2.85
2022-09-04T17:58:54.097Z,2.47
2022-09-04T18:01:20.868Z,2.83
2022-09-04T18:04:02.865Z,2.30
2022-09-04T18:06:34.532Z,2.22
2022-09-04T18:09:01.287Z,2.13
2022-09-04T18:11:28.927Z,2.42
2022-09-04T18:13:55.608Z,2.35
2022-09-04T18:16:26.210Z,2.38
2022-09-04T18:18:53.015Z,2.20
2022-09-04T18:21:20.658Z,2.22
2022-09-04T18:23:52.024Z,2.28
2022-09-04T18:26:19.113Z,2.15
2022-09-04T18:28:50.457Z,2.47
2022-09-04T18:37:13.235Z,2.30
2022-09-04T18:37:20.959Z,2.00
2022-09-04T18:37:24.550Z,2.58
2022-09-04T18:39:38.023Z,2.42
2022-09-04T18:48:49.224Z,2.20
2022-09-04T18:50:33.638Z,2.33
2022-09-04T18:50:44.806Z,2.38
2022-09-04T18:51:03.325Z,2.10
2022-09-04T18:53:11.696Z,2.40
2022-09-04T18:55:38.364Z,2.10
2022-09-04T18:58:05.087Z,2.22
2022-09-04T19:00:31.977Z,2.30
2022-09-04T19:02:58.668Z,2.08
2022-09-04T19:05:25.375Z,2.15
2022-09-04T19:07:52.485Z,2.35
2022-09-04T19:10:19.207Z,2.60
2022-09-04T19:12:47.637Z,2.83
2022-09-04T19:15:14.936Z,9.85
2022-09-04T19:17:41.710Z,4.60
2022-09-04T19:20:08.634Z,3.80
2022-09-04T19:22:35.511Z,2.97
2022-09-04T19:25:03.850Z,2.20
2022-09-04T19:27:30.606Z,2.80
2022-09-04T19:29:57.330Z,2.28
2022-09-04T19:32:44.066Z,2.33
2022-09-04T19:35:13.306Z,2.33
2022-09-04T19:39:19.551Z,2.35
2022-09-04T19:45:59.861Z,2.10
2022-09-04T19:46:12.953Z,2.50
2022-09-04T19:46:27.779Z,2.28
2022-09-04T19:49:25.475Z,2.13
2022-09-04T19:53:30.395Z,2.65
2022-09-04T19:54:22.678Z,3.35
2022-09-04T19:57:31.249Z,2.92
2022-09-04T19:59:36.114Z,3.15
2022-09-04T20:02:03.821Z,2.88
2022-09-04T20:04:30.679Z,2.65
2022-09-04T20:06:59.293Z,3.22
2022-09-04T20:09:26.296Z,2.80
2022-09-04T20:11:52.981Z,3.05
2022-09-04T20:14:19.733Z,2.58
2022-09-04T20:16:48.262Z,2.40
2022-09-04T20:19:16.728Z,2.78
2022-09-04T20:21:51.300Z,2.42
2022-09-04T20:24:18.019Z,3.10
2022-09-04T20:26:44.741Z,2.60
2022-09-04T20:29:11.433Z,2.72
2022-09-04T20:31:40.092Z,2.78
2022-09-04T20:34:09.571Z,2.65
2022-09-04T20:36:36.473Z,2.75
2022-09-04T20:39:03.428Z,2.67
2022-09-04T20:41:31.558Z,2.55
2022-09-04T20:43:58.286Z,3.38
2022-09-04T20:48:17.409Z,2.53
2022-09-04T20:52:50.939Z,2.58
2022-09-04T20:52:56.251Z,2.60
2022-09-04T20:54:45.446Z,2.85
2022-09-04T20:59:41.199Z,2.55
2022-09-04T21:03:18.414Z,2.33
2022-09-04T21:03:20.359Z,3.00
2022-09-04T21:05:32.662Z,2.20
2022-09-04T21:08:00.492Z,2.83
2022-09-04T21:10:27.280Z,2.78
2022-09-04T21:13:13.309Z,3.20
2022-09-04T21:15:40.797Z,3.30
2022-09-04T21:18:07.496Z,3.40
2022-09-04T21:20:34.242Z,3.30
2022-09-04T21:23:04.219Z,3.47
2022-09-04T21:25:31.472Z,3.90
2022-09-04T21:27:58.990Z,4.53
2022-09-04T21:30:26.095Z,4.00
2022-09-04T21:32:52.795Z,4.00
2022-09-04T21:35:25.450Z,3.50
2022-09-04T21:37:52.247Z,3.05
2022-09-04T21:40:30.971Z,3.30
2022-09-04T21:43:05.814Z,3.20
2022-09-04T21:45:32.718Z,2.97
2022-09-04T21:47:59.432Z,3.08
2022-09-04T21:50:29.209Z,3.15
2022-09-04T21:52:59.115Z,2.95
2022-09-04T22:00:08.076Z,3.08
2022-09-04T22:02:39.687Z,2.67
2022-09-04T22:02:41.886Z,2.65
2022-09-04T22:03:46.099Z,3.03
2022-09-04T22:06:12.931Z,2.40
2022-09-04T22:12:18.235Z,2.90
2022-09-04T22:13:33.385Z,2.50
2022-09-04T22:14:16.683Z,2.67
2022-09-04T22:16:43.482Z,2.92
2022-09-04T22:19:16.345Z,2.45
2022-09-04T22:21:43.689Z,2.90
2022-09-04T22:24:10.388Z,2.85
2022-09-04T22:26:37.086Z,2.63
2022-09-04T22:29:03.838Z,2.40
2022-09-04T22:31:30.605Z,2.88
2022-09-04T22:34:16.676Z,2.60
2022-09-04T22:36:45.093Z,2.70
2022-09-04T22:39:14.684Z,2.60
2022-09-04T22:41:41.380Z,2.65
2022-09-04T22:44:08.119Z,2.53
2022-09-04T22:46:34.938Z,2.60
2022-09-04T22:49:12.075Z,2.30
2022-09-04T22:51:40.009Z,2.63
2022-09-04T22:54:06.756Z,2.63
2022-09-04T22:56:33.540Z,2.50
2022-09-04T22:59:07.559Z,2.47
2022-09-04T23:01:47.005Z,2.60
2022-09-04T23:04:13.775Z,2.65
2022-09-04T23:08:58.497Z,2.55
2022-09-04T23:13:58.089Z,2.45
2022-09-04T23:13:59.988Z,2.30
2022-09-04T23:15:08.911Z,2.10
2022-09-04T23:17:35.828Z,2.88
2022-09-04T23:26:31.610Z,2.53
2022-09-04T23:26:43.940Z,2.20
2022-09-04T23:26:48.445Z,2.20
2022-09-04T23:28:29.772Z,2.00
2022-09-04T23:30:56.761Z,2.20
2022-09-04T23:33:27.919Z,2.28
2022-09-04T23:35:55.114Z,2.33
2022-09-04T23:38:21.827Z,2.60
2022-09-04T23:40:48.588Z,2.45
2022-09-04T23:43:18.768Z,2.40
2022-09-04T23:45:59.274Z,2.42
2022-09-04T23:48:28.774Z,2.50
2022-09-04T23:50:55.521Z,2.20
2022-09-04T23:53:22.223Z,2.50
2022-09-04T23:55:49.844Z,2.33
2022-09-04T23:58:35.467Z,2.88
